sensor_id;sensor_type;location;lat;lon;timestamp;pressure;altitude;pressure_sealevel;temperature;humidity
29433;BME280;16405;53.964;13.448;2022-08-21T00:00:16;101122.97;;;16.09;100.00
29433;BME280;16405;53.964;13.448;2022-08-21T00:02:57;101119.47;;;16.08;100.00
29433;BME280;16405;53.964;13.448;2022-08-21T00:05:26;101118.06;;;16.03;100.00
29433;BME280;16405;53.964;13.448;2022-08-21T00:07:52;101117.50;;;15.97;100.00
29433;BME280;16405;53.964;13.448;2022-08-21T00:10:27;101110.66;;;15.93;100.00
29433;BME280;16405;53.964;13.448;2022-08-21T00:12:53;101110.88;;;15.90;100.00
29433;BME280;16405;53.964;13.448;2022-08-21T00:15:28;101104.97;;;15.85;100.00
29433;BME280;16405;53.964;13.448;2022-08-21T00:17:56;101107.84;;;15.82;100.00
29433;BME280;16405;53.964;13.448;2022-08-21T00:20:23;101109.94;;;15.77;100.00
29433;BME280;16405;53.964;13.448;2022-08-21T00:22:57;101111.16;;;15.71;100.00
29433;BME280;16405;53.964;13.448;2022-08-21T00:25:23;101107.16;;;15.64;100.00
29433;BME280;16405;53.964;13.448;2022-08-21T00:27:49;101107.53;;;15.58;100.00
29433;BME280;16405;53.964;13.448;2022-08-21T00:30:21;101101.38;;;15.57;100.00
29433;BME280;16405;53.964;13.448;2022-08-21T00:32:48;101108.66;;;15.54;100.00
29433;BME280;16405;53.964;13.448;2022-08-21T00:35:20;101107.91;;;15.52;100.00
29433;BME280;16405;53.964;13.448;2022-08-21T00:37:46;101101.66;;;15.53;100.00
29433;BME280;16405;53.964;13.448;2022-08-21T00:40:18;101101.66;;;15.53;100.00
29433;BME280;16405;53.964;13.448;2022-08-21T00:42:45;101096.53;;;15.50;100.00
29433;BME280;16405;53.964;13.448;2022-08-21T00:45:11;101099.25;;;15.48;100.00
29433;BME280;16405;53.964;13.448;2022-08-21T00:47:38;101091.59;;;15.44;100.00
29433;BME280;16405;53.964;13.448;2022-08-21T00:50:07;101097.09;;;15.41;100.00
29433;BME280;16405;53.964;13.448;2022-08-21T00:52:34;101091.94;;;15.37;100.00
29433;BME280;16405;53.964;13.448;2022-08-21T00:55:03;101095.56;;;15.36;100.00
29433;BME280;16405;53.964;13.448;2022-08-21T00:57:55;101096.50;;;15.35;100.00
29433;BME280;16405;53.964;13.448;2022-08-21T01:00:29;101087.97;;;15.30;100.00
29433;BME280;16405;53.964;13.448;2022-08-21T01:02:57;101095.72;;;15.19;100.00
29433;BME280;16405;53.964;13.448;2022-08-21T01:05:24;101087.09;;;15.15;100.00
29433;BME280;16405;53.964;13.448;2022-08-21T01:07:50;101088.97;;;15.13;100.00
29433;BME280;16405;53.964;13.448;2022-08-21T01:10:18;101083.03;;;15.10;100.00
29433;BME280;16405;53.964;13.448;2022-08-21T01:12:44;101087.84;;;15.03;100.00
29433;BME280;16405;53.964;13.448;2022-08-21T01:15:11;101085.19;;;15.03;100.00
29433;BME280;16405;53.964;13.448;2022-08-21T01:17:40;101083.47;;;15.02;100.00
29433;BME280;16405;53.964;13.448;2022-08-21T01:20:09;101087.94;;;15.02;100.00
29433;BME280;16405;53.964;13.448;2022-08-21T01:22:36;101079.28;;;14.98;100.00
29433;BME280;16405;53.964;13.448;2022-08-21T01:25:06;101086.31;;;14.99;100.00
29433;BME280;16405;53.964;13.448;2022-08-21T01:27:33;101082.78;;;14.98;100.00
29433;BME280;16405;53.964;13.448;2022-08-21T01:30:13;101075.22;;;14.92;100.00
29433;BME280;16405;53.964;13.448;2022-08-21T01:32:40;101079.09;;;14.87;100.00
29433;BME280;16405;53.964;13.448;2022-08-21T01:35:10;101078.31;;;14.85;100.00
29433;BME280;16405;53.964;13.448;2022-08-21T01:37:37;101075.25;;;14.76;100.00
29433;BME280;16405;53.964;13.448;2022-08-21T01:40:05;101083.28;;;14.75;100.00
29433;BME280;16405;53.964;13.448;2022-08-21T01:42:31;101080.91;;;14.70;100.00
29433;BME280;16405;53.964;13.448;2022-08-21T01:44:57;101080.25;;;14.67;100.00
29433;BME280;16405;53.964;13.448;2022-08-21T01:47:23;101076.16;;;14.61;100.00
29433;BME280;16405;53.964;13.448;2022-08-21T01:49:49;101064.78;;;14.59;100.00
29433;BME280;16405;53.964;13.448;2022-08-21T01:52:16;101064.88;;;14.57;100.00
29433;BME280;16405;53.964;13.448;2022-08-21T01:54:42;101066.84;;;14.54;100.00
29433;BME280;16405;53.964;13.448;2022-08-21T01:57:08;101068.78;;;14.50;100.00
29433;BME280;16405;53.964;13.448;2022-08-21T01:59:34;101070.69;;;14.48;100.00
29433;BME280;16405;53.964;13.448;2022-08-21T02:02:00;101071.72;;;14.46;100.00
29433;BME280;16405;53.964;13.448;2022-08-21T02:04:26;101074.78;;;14.38;100.00
29433;BME280;16405;53.964;13.448;2022-08-21T02:06:52;101074.72;;;14.40;100.00
29433;BME280;16405;53.964;13.448;2022-08-21T02:09:18;101073.09;;;14.37;100.00
29433;BME280;16405;53.964;13.448;2022-08-21T02:11:44;101081.38;;;14.31;100.00
29433;BME280;16405;53.964;13.448;2022-08-21T02:14:13;101091.06;;;14.32;100.00
29433;BME280;16405;53.964;13.448;2022-08-21T02:16:42;101090.88;;;14.35;100.00
29433;BME280;16405;53.964;13.448;2022-08-21T02:19:09;101091.63;;;14.37;100.00
29433;BME280;16405;53.964;13.448;2022-08-21T02:21:36;101087.03;;;14.41;100.00
29433;BME280;16405;53.964;13.448;2022-08-21T02:24:02;101083.63;;;14.39;100.00
29433;BME280;16405;53.964;13.448;2022-08-21T02:26:28;101084.81;;;14.33;100.00
29433;BME280;16405;53.964;13.448;2022-08-21T02:28:54;101081.31;;;14.32;100.00
29433;BME280;16405;53.964;13.448;2022-08-21T02:31:20;101077.81;;;14.32;100.00
29433;BME280;16405;53.964;13.448;2022-08-21T02:33:46;101082.91;;;14.35;100.00
29433;BME280;16405;53.964;13.448;2022-08-21T02:36:13;101086.59;;;14.32;100.00
29433;BME280;16405;53.964;13.448;2022-08-21T02:38:40;101087.44;;;14.33;100.00
29433;BME280;16405;53.964;13.448;2022-08-21T02:41:15;101093.44;;;14.36;100.00
29433;BME280;16405;53.964;13.448;2022-08-21T02:43:42;101089.84;;;14.38;100.00
29433;BME280;16405;53.964;13.448;2022-08-21T02:46:10;101091.56;;;14.39;100.00
29433;BME280;16405;53.964;13.448;2022-08-21T02:48:38;101094.09;;;14.40;100.00
29433;BME280;16405;53.964;13.448;2022-08-21T02:51:09;101090.69;;;14.38;100.00
29433;BME280;16405;53.964;13.448;2022-08-21T02:53:36;101097.72;;;14.39;100.00
29433;BME280;16405;53.964;13.448;2022-08-21T02:56:07;101100.16;;;14.42;100.00
29433;BME280;16405;53.964;13.448;2022-08-21T02:58:39;101102.16;;;14.39;100.00
29433;BME280;16405;53.964;13.448;2022-08-21T03:01:06;101104.53;;;14.43;100.00
29433;BME280;16405;53.964;13.448;2022-08-21T03:03:36;101103.44;;;14.47;100.00
29433;BME280;16405;53.964;13.448;2022-08-21T03:06:05;101097.94;;;14.50;100.00
29433;BME280;16405;53.964;13.448;2022-08-21T03:08:31;101098.78;;;14.51;100.00
29433;BME280;16405;53.964;13.448;2022-08-21T03:10:57;101106.56;;;14.54;100.00
29433;BME280;16405;53.964;13.448;2022-08-21T03:13:25;101097.75;;;14.53;100.00
29433;BME280;16405;53.964;13.448;2022-08-21T03:15:51;101093.25;;;14.55;100.00
29433;BME280;16405;53.964;13.448;2022-08-21T03:18:17;101089.75;;;14.55;100.00
29433;BME280;16405;53.964;13.448;2022-08-21T03:20:46;101091.59;;;14.53;100.00
29433;BME280;16405;53.964;13.448;2022-08-21T03:23:13;101100.59;;;14.50;100.00
29433;BME280;16405;53.964;13.448;2022-08-21T03:25:39;101103.31;;;14.49;100.00
29433;BME280;16405;53.964;13.448;2022-08-21T03:28:13;101100.78;;;14.47;100.00
29433;BME280;16405;53.964;13.448;2022-08-21T03:30:45;101106.22;;;14.44;100.00
29433;BME280;16405;53.964;13.448;2022-08-21T03:33:12;101109.66;;;14.46;100.00
29433;BME280;16405;53.964;13.448;2022-08-21T03:35:42;101106.75;;;14.51;100.00
29433;BME280;16405;53.964;13.448;2022-08-21T03:38:08;101113.75;;;14.52;100.00
29433;BME280;16405;53.964;13.448;2022-08-21T03:40:35;101110.06;;;14.54;100.00
29433;BME280;16405;53.964;13.448;2022-08-21T03:43:00;101112.56;;;14.57;100.00
29433;BME280;16405;53.964;13.448;2022-08-21T03:45:26;101109.22;;;14.54;100.00
29433;BME280;16405;53.964;13.448;2022-08-21T03:48:01;101105.56;;;14.56;100.00
29433;BME280;16405;53.964;13.448;2022-08-21T03:50:32;101110.59;;;14.61;100.00
29433;BME280;16405;53.964;13.448;2022-08-21T03:52:58;101106.84;;;14.65;100.00
29433;BME280;16405;53.964;13.448;2022-08-21T03:55:25;101097.09;;;14.66;100.00
29433;BME280;16405;53.964;13.448;2022-08-21T03:57:51;101105.81;;;14.68;100.00
29433;BME280;16405;53.964;13.448;2022-08-21T04:00:19;101106.50;;;14.71;100.00
29433;BME280;16405;53.964;13.448;2022-08-21T04:02:45;101107.16;;;14.75;100.00
29433;BME280;16405;53.964;13.448;2022-08-21T04:05:14;101108.03;;;14.75;100.00
29433;BME280;16405;53.964;13.448;2022-08-21T04:07:59;101110.75;;;14.74;100.00
29433;BME280;16405;53.964;13.448;2022-08-21T04:10:28;101113.50;;;14.72;100.00
29433;BME280;16405;53.964;13.448;2022-08-21T04:12:55;101108.09;;;14.74;100.00
29433;BME280;16405;53.964;13.448;2022-08-21T04:15:22;101111.53;;;14.76;100.00
29433;BME280;16405;53.964;13.448;2022-08-21T04:17:48;101112.22;;;14.80;100.00
29433;BME280;16405;53.964;13.448;2022-08-21T04:20:17;101111.94;;;14.84;100.00
29433;BME280;16405;53.964;13.448;2022-08-21T04:22:43;101114.41;;;14.87;100.00
29433;BME280;16405;53.964;13.448;2022-08-21T04:25:10;101124.72;;;14.92;100.00
29433;BME280;16405;53.964;13.448;2022-08-21T04:27:36;101128.84;;;14.97;100.00
29433;BME280;16405;53.964;13.448;2022-08-21T04:30:04;101125.81;;;15.04;100.00
29433;BME280;16405;53.964;13.448;2022-08-21T04:32:30;101127.34;;;15.08;100.00
29433;BME280;16405;53.964;13.448;2022-08-21T04:35:02;101131.34;;;15.15;100.00
29433;BME280;16405;53.964;13.448;2022-08-21T04:37:30;101146.13;;;15.19;100.00
29433;BME280;16405;53.964;13.448;2022-08-21T04:39:58;101133.56;;;15.23;100.00
29433;BME280;16405;53.964;13.448;2022-08-21T04:42:27;101136.78;;;15.28;100.00
29433;BME280;16405;53.964;13.448;2022-08-21T04:44:55;101138.78;;;15.38;100.00
29433;BME280;16405;53.964;13.448;2022-08-21T04:47:22;101140.41;;;15.55;100.00
29433;BME280;16405;53.964;13.448;2022-08-21T04:49:49;101138.03;;;15.65;100.00
29433;BME280;16405;53.964;13.448;2022-08-21T04:52:19;101133.06;;;15.75;100.00
29433;BME280;16405;53.964;13.448;2022-08-21T04:54:48;101140.16;;;15.89;100.00
29433;BME280;16405;53.964;13.448;2022-08-21T04:57:17;101137.03;;;15.96;100.00
29433;BME280;16405;53.964;13.448;2022-08-21T04:59:47;101140.81;;;16.07;100.00
29433;BME280;16405;53.964;13.448;2022-08-21T05:02:14;101141.84;;;16.18;100.00
29433;BME280;16405;53.964;13.448;2022-08-21T05:04:52;101143.06;;;16.27;100.00
29433;BME280;16405;53.964;13.448;2022-08-21T05:07:23;101144.63;;;16.44;100.00
29433;BME280;16405;53.964;13.448;2022-08-21T05:09:51;101145.91;;;16.66;100.00
29433;BME280;16405;53.964;13.448;2022-08-21T05:12:17;101137.28;;;16.89;100.00
29433;BME280;16405;53.964;13.448;2022-08-21T05:14:43;101141.31;;;17.35;100.00
29433;BME280;16405;53.964;13.448;2022-08-21T05:17:10;101146.34;;;17.91;100.00
29433;BME280;16405;53.964;13.448;2022-08-21T05:19:36;101145.25;;;18.43;100.00
29433;BME280;16405;53.964;13.448;2022-08-21T05:22:02;101153.59;;;19.11;100.00
29433;BME280;16405;53.964;13.448;2022-08-21T05:24:32;101151.31;;;19.75;99.45
29433;BME280;16405;53.964;13.448;2022-08-21T05:26:58;101157.16;;;20.03;95.93
29433;BME280;16405;53.964;13.448;2022-08-21T05:29:24;101148.78;;;20.07;94.76
29433;BME280;16405;53.964;13.448;2022-08-21T05:31:50;101159.34;;;20.09;94.45
29433;BME280;16405;53.964;13.448;2022-08-21T05:34:22;101157.91;;;20.05;93.84
29433;BME280;16405;53.964;13.448;2022-08-21T05:36:48;101156.91;;;19.95;94.89
29433;BME280;16405;53.964;13.448;2022-08-21T05:39:15;101158.03;;;19.81;95.27
29433;BME280;16405;53.964;13.448;2022-08-21T05:41:41;101170.75;;;19.31;98.41
29433;BME280;16405;53.964;13.448;2022-08-21T05:44:07;101156.94;;;18.90;100.00
29433;BME280;16405;53.964;13.448;2022-08-21T05:46:33;101163.03;;;18.55;100.00
29433;BME280;16405;53.964;13.448;2022-08-21T05:49:03;101166.78;;;18.40;100.00
29433;BME280;16405;53.964;13.448;2022-08-21T05:51:29;101170.53;;;18.37;100.00
29433;BME280;16405;53.964;13.448;2022-08-21T05:53:55;101166.53;;;18.32;100.00
29433;BME280;16405;53.964;13.448;2022-08-21T05:56:21;101162.38;;;18.28;100.00
29433;BME280;16405;53.964;13.448;2022-08-21T05:58:47;101169.72;;;18.24;100.00
29433;BME280;16405;53.964;13.448;2022-08-21T06:01:12;101170.38;;;18.28;100.00
29433;BME280;16405;53.964;13.448;2022-08-21T06:03:40;101168.72;;;18.38;100.00
29433;BME280;16405;53.964;13.448;2022-08-21T06:06:06;101170.16;;;18.55;100.00
29433;BME280;16405;53.964;13.448;2022-08-21T06:08:33;101161.38;;;18.65;100.00
29433;BME280;16405;53.964;13.448;2022-08-21T06:11:00;101161.97;;;18.82;100.00
29433;BME280;16405;53.964;13.448;2022-08-21T06:13:27;101176.44;;;18.91;100.00
29433;BME280;16405;53.964;13.448;2022-08-21T06:16:12;101174.81;;;19.01;100.00
29433;BME280;16405;53.964;13.448;2022-08-21T06:18:39;101178.75;;;19.19;100.00
29433;BME280;16405;53.964;13.448;2022-08-21T06:21:06;101175.97;;;19.21;100.00
29433;BME280;16405;53.964;13.448;2022-08-21T06:23:33;101180.84;;;19.27;100.00
29433;BME280;16405;53.964;13.448;2022-08-21T06:26:02;101188.03;;;19.38;100.00
29433;BME280;16405;53.964;13.448;2022-08-21T06:28:28;101182.63;;;19.62;100.00
29433;BME280;16405;53.964;13.448;2022-08-21T06:30:53;101183.50;;;19.74;100.00
29433;BME280;16405;53.964;13.448;2022-08-21T06:33:19;101181.81;;;19.73;95.92
29433;BME280;16405;53.964;13.448;2022-08-21T06:35:45;101183.66;;;19.83;94.64
29433;BME280;16405;53.964;13.448;2022-08-21T06:38:11;101172.59;;;19.77;91.08
29433;BME280;16405;53.964;13.448;2022-08-21T06:40:38;101186.81;;;20.22;92.58
29433;BME280;16405;53.964;13.448;2022-08-21T06:43:13;101188.09;;;20.51;87.41
29433;BME280;16405;53.964;13.448;2022-08-21T06:45:40;101186.44;;;20.82;85.02
29433;BME280;16405;53.964;13.448;2022-08-21T06:48:06;101177.63;;;21.02;84.61
29433;BME280;16405;53.964;13.448;2022-08-21T06:50:37;101182.19;;;21.12;83.38
29433;BME280;16405;53.964;13.448;2022-08-21T06:53:07;101190.06;;;21.24;81.91
29433;BME280;16405;53.964;13.448;2022-08-21T06:55:36;101185.03;;;21.31;81.40
29433;BME280;16405;53.964;13.448;2022-08-21T06:58:04;101189.94;;;21.26;80.75
29433;BME280;16405;53.964;13.448;2022-08-21T07:00:32;101182.00;;;21.03;80.25
29433;BME280;16405;53.964;13.448;2022-08-21T07:02:58;101186.03;;;20.98;80.68
29433;BME280;16405;53.964;13.448;2022-08-21T07:05:29;101197.97;;;21.26;80.19
29433;BME280;16405;53.964;13.448;2022-08-21T07:07:58;101194.41;;;21.58;77.88
29433;BME280;16405;53.964;13.448;2022-08-21T07:10:26;101199.41;;;21.93;76.67
29433;BME280;16405;53.964;13.448;2022-08-21T07:12:52;101194.50;;;22.29;75.61
29433;BME280;16405;53.964;13.448;2022-08-21T07:15:19;101200.13;;;22.86;74.13
29433;BME280;16405;53.964;13.448;2022-08-21T07:17:45;101196.31;;;22.98;71.70
29433;BME280;16405;53.964;13.448;2022-08-21T07:20:13;101195.44;;;22.98;71.60
29433;BME280;16405;53.964;13.448;2022-08-21T07:22:40;101191.09;;;22.97;72.20
29433;BME280;16405;53.964;13.448;2022-08-21T07:25:07;101191.25;;;23.24;70.99
29433;BME280;16405;53.964;13.448;2022-08-21T07:27:33;101186.44;;;23.18;69.75
29433;BME280;16405;53.964;13.448;2022-08-21T07:29:59;101186.94;;;23.80;69.00
29433;BME280;16405;53.964;13.448;2022-08-21T07:32:25;101187.25;;;24.05;68.00
29433;BME280;16405;53.964;13.448;2022-08-21T07:34:53;101199.63;;;24.53;66.97
29433;BME280;16405;53.964;13.448;2022-08-21T07:37:19;101188.84;;;24.25;65.92
29433;BME280;16405;53.964;13.448;2022-08-21T07:39:45;101193.59;;;24.41;66.18
29433;BME280;16405;53.964;13.448;2022-08-21T07:42:15;101191.16;;;24.20;66.27
29433;BME280;16405;53.964;13.448;2022-08-21T07:44:41;101185.47;;;24.51;66.30
29433;BME280;16405;53.964;13.448;2022-08-21T07:47:09;101193.13;;;24.46;66.22
29433;BME280;16405;53.964;13.448;2022-08-21T07:49:35;101185.06;;;23.71;67.61
29433;BME280;16405;53.964;13.448;2022-08-21T07:52:01;101191.38;;;23.23;69.62
29433;BME280;16405;53.964;13.448;2022-08-21T07:54:27;101185.25;;;22.72;71.31
29433;BME280;16405;53.964;13.448;2022-08-21T07:56:53;101182.44;;;22.64;72.08
29433;BME280;16405;53.964;13.448;2022-08-21T07:59:18;101188.03;;;22.41;72.90
29433;BME280;16405;53.964;13.448;2022-08-21T08:01:44;101195.28;;;22.60;73.34
29433;BME280;16405;53.964;13.448;2022-08-21T08:04:13;101194.34;;;22.81;74.03
29433;BME280;16405;53.964;13.448;2022-08-21T08:06:41;101186.44;;;23.18;72.54
29433;BME280;16405;53.964;13.448;2022-08-21T08:09:07;101191.47;;;23.60;70.11
29433;BME280;16405;53.964;13.448;2022-08-21T08:11:32;101190.66;;;23.40;69.71
29433;BME280;16405;53.964;13.448;2022-08-21T08:13:59;101191.94;;;23.17;70.72
29433;BME280;16405;53.964;13.448;2022-08-21T08:16:26;101192.38;;;23.12;70.04
29433;BME280;16405;53.964;13.448;2022-08-21T08:18:52;101201.13;;;22.94;69.58
29433;BME280;16405;53.964;13.448;2022-08-21T08:21:18;101200.31;;;23.13;70.76
29433;BME280;16405;53.964;13.448;2022-08-21T08:23:46;101197.63;;;23.13;70.71
29433;BME280;16405;53.964;13.448;2022-08-21T08:26:13;101196.06;;;23.11;71.52
29433;BME280;16405;53.964;13.448;2022-08-21T08:28:39;101196.16;;;23.00;71.34
29433;BME280;16405;53.964;13.448;2022-08-21T08:31:04;101208.16;;;22.86;71.45
29433;BME280;16405;53.964;13.448;2022-08-21T08:33:31;101208.44;;;22.73;71.44
29433;BME280;16405;53.964;13.448;2022-08-21T08:35:56;101215.06;;;22.59;71.80
29433;BME280;16405;53.964;13.448;2022-08-21T08:38:24;101206.13;;;22.49;72.98
29433;BME280;16405;53.964;13.448;2022-08-21T08:41:13;101204.41;;;22.38;73.30
29433;BME280;16405;53.964;13.448;2022-08-21T08:43:50;101213.22;;;22.69;72.70
29433;BME280;16405;53.964;13.448;2022-08-21T08:46:33;101212.47;;;23.37;71.12
29433;BME280;16405;53.964;13.448;2022-08-21T08:49:24;101216.53;;;24.08;69.55
29433;BME280;16405;53.964;13.448;2022-08-21T08:52:07;101212.88;;;24.36;67.42
29433;BME280;16405;53.964;13.448;2022-08-21T08:54:55;101212.34;;;24.61;66.42
29433;BME280;16405;53.964;13.448;2022-08-21T08:57:24;101205.72;;;24.73;64.77
29433;BME280;16405;53.964;13.448;2022-08-21T08:59:53;101210.47;;;24.33;64.01
29433;BME280;16405;53.964;13.448;2022-08-21T09:02:22;101217.34;;;24.46;66.44
29433;BME280;16405;53.964;13.448;2022-08-21T09:04:54;101216.41;;;24.37;67.52
29433;BME280;16405;53.964;13.448;2022-08-21T09:07:40;101216.63;;;24.53;65.61
29433;BME280;16405;53.964;13.448;2022-08-21T09:10:25;101216.34;;;24.74;65.81
29433;BME280;16405;53.964;13.448;2022-08-21T09:25:30;101215.53;;;25.10;63.21
29433;BME280;16405;53.964;13.448;2022-08-21T09:27:58;101216.31;;;25.02;64.08
29433;BME280;16405;53.964;13.448;2022-08-21T09:30:31;101229.59;;;24.68;64.80
29433;BME280;16405;53.964;13.448;2022-08-21T09:32:58;101228.53;;;24.79;64.27
29433;BME280;16405;53.964;13.448;2022-08-21T09:35:25;101226.28;;;24.92;63.25
29433;BME280;16405;53.964;13.448;2022-08-21T09:38:06;101222.38;;;25.04;63.73
29433;BME280;16405;53.964;13.448;2022-08-21T09:40:46;101218.09;;;25.29;63.05
29433;BME280;16405;53.964;13.448;2022-08-21T09:43:19;101214.59;;;25.19;61.37
29433;BME280;16405;53.964;13.448;2022-08-21T09:48:58;101208.44;;;25.27;60.71
29433;BME280;16405;53.964;13.448;2022-08-21T09:51:39;101211.28;;;25.43;61.94
29433;BME280;16405;53.964;13.448;2022-08-21T09:54:18;101196.53;;;25.29;57.54
29433;BME280;16405;53.964;13.448;2022-08-21T09:57:04;101209.16;;;25.29;59.47
29433;BME280;16405;53.964;13.448;2022-08-21T10:00:29;101205.00;;;25.16;57.66
29433;BME280;16405;53.964;13.448;2022-08-21T10:03:13;101210.06;;;25.02;57.31
29433;BME280;16405;53.964;13.448;2022-08-21T10:05:51;101213.22;;;25.15;56.14
29433;BME280;16405;53.964;13.448;2022-08-21T10:08:20;101210.38;;;24.98;54.12
29433;BME280;16405;53.964;13.448;2022-08-21T10:11:03;101217.59;;;24.98;54.06
29433;BME280;16405;53.964;13.448;2022-08-21T10:57:22;101239.59;;;25.21;51.68
29433;BME280;16405;53.964;13.448;2022-08-21T11:00:06;101232.63;;;25.36;50.93
29433;BME280;16405;53.964;13.448;2022-08-21T11:03:00;101235.22;;;25.46;51.10
29433;BME280;16405;53.964;13.448;2022-08-21T11:05:52;101226.47;;;25.26;51.65
29433;BME280;16405;53.964;13.448;2022-08-21T11:08:58;101236.31;;;25.35;53.70
29433;BME280;16405;53.964;13.448;2022-08-21T11:11:44;101233.53;;;25.45;52.67
29433;BME280;16405;53.964;13.448;2022-08-21T11:14:40;101225.38;;;25.19;53.09
29433;BME280;16405;53.964;13.448;2022-08-21T11:17:13;101233.88;;;25.24;53.67
29433;BME280;16405;53.964;13.448;2022-08-21T11:23:28;101240.91;;;25.61;52.39
29433;BME280;16405;53.964;13.448;2022-08-21T11:26:07;101244.31;;;25.89;53.55
29433;BME280;16405;53.964;13.448;2022-08-21T11:28:47;101246.75;;;26.27;50.78
29433;BME280;16405;53.964;13.448;2022-08-21T11:31:56;101250.63;;;26.67;51.82
29433;BME280;16405;53.964;13.448;2022-08-21T11:43:53;101242.94;;;27.21;48.31
29433;BME280;16405;53.964;13.448;2022-08-21T11:47:04;101244.44;;;26.83;49.70
29433;BME280;16405;53.964;13.448;2022-08-21T11:52:38;101248.22;;;26.21;50.97
29433;BME280;16405;53.964;13.448;2022-08-21T11:55:23;101242.53;;;26.32;51.12
29433;BME280;16405;53.964;13.448;2022-08-21T12:03:51;101238.03;;;26.49;51.66
29433;BME280;16405;53.964;13.448;2022-08-21T12:06:07;101244.59;;;26.81;50.87
29433;BME280;16405;53.964;13.448;2022-08-21T12:08:43;101240.72;;;26.84;49.96
29433;BME280;16405;53.964;13.448;2022-08-21T12:14:15;101243.44;;;26.92;49.70
29433;BME280;16405;53.964;13.448;2022-08-21T12:16:47;101232.59;;;26.84;50.19
29433;BME280;16405;53.964;13.448;2022-08-21T12:19:30;101226.53;;;26.39;49.09
29433;BME280;16405;53.964;13.448;2022-08-21T12:24:42;101231.97;;;26.13;50.37
29433;BME280;16405;53.964;13.448;2022-08-21T12:30:01;101230.94;;;26.06;51.25
29433;BME280;16405;53.964;13.448;2022-08-21T12:32:53;101234.28;;;25.99;50.28
29433;BME280;16405;53.964;13.448;2022-08-21T12:35:25;101230.22;;;25.95;49.39
29433;BME280;16405;53.964;13.448;2022-08-21T12:40:48;101230.13;;;25.61;48.79
29433;BME280;16405;53.964;13.448;2022-08-21T12:43:33;101230.66;;;25.65;50.96
29433;BME280;16405;53.964;13.448;2022-08-21T12:46:00;101227.63;;;25.42;49.98
29433;BME280;16405;53.964;13.448;2022-08-21T12:48:52;101227.16;;;25.28;50.24
29433;BME280;16405;53.964;13.448;2022-08-21T12:51:34;101227.53;;;25.15;50.24
29433;BME280;16405;53.964;13.448;2022-08-21T12:54:02;101222.00;;;25.17;51.09
29433;BME280;16405;53.964;13.448;2022-08-21T12:56:32;101221.69;;;25.02;50.87
29433;BME280;16405;53.964;13.448;2022-08-21T12:59:11;101230.28;;;24.88;51.81
29433;BME280;16405;53.964;13.448;2022-08-21T13:01:50;101229.53;;;24.95;52.94
29433;BME280;16405;53.964;13.448;2022-08-21T13:04:35;101218.44;;;24.81;52.58
29433;BME280;16405;53.964;13.448;2022-08-21T13:07:11;101212.13;;;24.44;52.21
29433;BME280;16405;53.964;13.448;2022-08-21T13:09:59;101209.28;;;24.46;52.82
29433;BME280;16405;53.964;13.448;2022-08-21T13:12:26;101216.97;;;24.68;53.42
29433;BME280;16405;53.964;13.448;2022-08-21T13:15:04;101207.75;;;24.71;52.62
29433;BME280;16405;53.964;13.448;2022-08-21T13:17:34;101210.81;;;24.58;52.01
29433;BME280;16405;53.964;13.448;2022-08-21T13:20:17;101202.97;;;24.65;51.66
29433;BME280;16405;53.964;13.448;2022-08-21T13:22:44;101208.13;;;24.58;51.95
29433;BME280;16405;53.964;13.448;2022-08-21T13:25:19;101202.72;;;24.58;50.55
29433;BME280;16405;53.964;13.448;2022-08-21T13:30:25;101202.97;;;25.01;50.68
29433;BME280;16405;53.964;13.448;2022-08-21T13:32:56;101199.16;;;25.21;49.86
29433;BME280;16405;53.964;13.448;2022-08-21T13:35:48;101203.84;;;25.63;50.74
29433;BME280;16405;53.964;13.448;2022-08-21T13:38:16;101193.31;;;26.04;51.58
29433;BME280;16405;53.964;13.448;2022-08-21T13:40:50;101190.50;;;26.14;50.45
29433;BME280;16405;53.964;13.448;2022-08-21T13:43:25;101195.06;;;25.87;52.14
29433;BME280;16405;53.964;13.448;2022-08-21T13:45:54;101193.22;;;26.14;49.04
29433;BME280;16405;53.964;13.448;2022-08-21T13:48:25;101191.59;;;25.95;48.16
29433;BME280;16405;53.964;13.448;2022-08-21T13:50:52;101202.09;;;26.06;48.31
29433;BME280;16405;53.964;13.448;2022-08-21T13:53:34;101190.00;;;25.84;48.32
29433;BME280;16405;53.964;13.448;2022-08-21T13:56:01;101191.34;;;26.14;48.33
29433;BME280;16405;53.964;13.448;2022-08-21T13:58:44;101187.44;;;26.51;47.63
29433;BME280;16405;53.964;13.448;2022-08-21T14:01:33;101198.84;;;26.88;47.85
29433;BME280;16405;53.964;13.448;2022-08-21T14:04:30;101196.88;;;27.23;45.56
29433;BME280;16405;53.964;13.448;2022-08-21T14:06:58;101200.72;;;27.45;45.58
29433;BME280;16405;53.964;13.448;2022-08-21T14:09:41;101201.88;;;27.75;45.50
29433;BME280;16405;53.964;13.448;2022-08-21T14:12:43;101192.94;;;27.00;46.14
29433;BME280;16405;53.964;13.448;2022-08-21T14:15:14;101190.06;;;27.51;48.20
29433;BME280;16405;53.964;13.448;2022-08-21T14:17:42;101195.63;;;27.74;46.77
29433;BME280;16405;53.964;13.448;2022-08-21T14:20:32;101185.38;;;27.04;48.56
29433;BME280;16405;53.964;13.448;2022-08-21T14:22:59;101184.28;;;26.64;50.04
29433;BME280;16405;53.964;13.448;2022-08-21T14:28:13;101171.28;;;25.56;48.09
29433;BME280;16405;53.964;13.448;2022-08-21T14:30:42;101170.66;;;25.36;50.76
29433;BME280;16405;53.964;13.448;2022-08-21T14:33:13;101182.00;;;25.48;53.07